createdAt,value
2023-01-06T00:01:32.586Z,16.30
2023-01-06T00:03:34.284Z,13.02
2023-01-06T00:05:41.902Z,12.88
2023-01-06T00:07:44.329Z,12.85
2023-01-06T00:09:46.036Z,13.60
2023-01-06T00:11:53.416Z,14.52
2023-01-06T00:14:01.247Z,15.05
2023-01-06T00:16:10.336Z,12.98
2023-01-06T00:18:17.931Z,15.73
2023-01-06T00:20:22.251Z,11.82
2023-01-06T00:22:23.825Z,7.25
2023-01-06T00:24:25.296Z,17.25
2023-01-06T00:26:27.116Z,18.73
2023-01-06T00:28:35.462Z,19.00
2023-01-06T00:30:38.089Z,20.35
2023-01-06T00:32:39.576Z,14.23
2023-01-06T00:34:41.420Z,14.32
2023-01-06T00:36:49.769Z,16.90
2023-01-06T00:39:01.835Z,17.38
2023-01-06T00:41:34.034Z,19.38
2023-01-06T00:45:41.038Z,14.55
2023-01-06T00:47:47.593Z,13.43
2023-01-06T00:49:51.232Z,13.88
2023-01-06T00:51:59.407Z,16.02
2023-01-06T00:54:02.955Z,15.98
2023-01-06T00:56:05.084Z,17.88
2023-01-06T00:58:14.162Z,16.67
2023-01-06T01:00:24.127Z,8.35
2023-01-06T01:02:33.129Z,10.10
2023-01-06T01:04:42.680Z,10.48
2023-01-06T01:06:53.111Z,5.68
2023-01-06T01:09:06.905Z,11.55
2023-01-06T01:11:35.587Z,9.15
2023-01-06T01:13:37.603Z,7.68
2023-01-06T01:15:45.081Z,4.40
2023-01-06T01:17:46.640Z,5.05
2023-01-06T01:19:49.243Z,3.30
2023-01-06T01:21:50.886Z,2.72
2023-01-06T01:23:58.496Z,1.65
2023-01-06T01:26:06.030Z,3.20
2023-01-06T01:28:07.731Z,3.00
2023-01-06T01:30:14.978Z,7.95
2023-01-06T01:32:16.696Z,8.00
2023-01-06T01:34:18.628Z,5.18
2023-01-06T01:36:26.431Z,5.85
2023-01-06T01:38:35.327Z,5.78
2023-01-06T01:40:51.733Z,3.42
2023-01-06T01:42:59.288Z,1.50
2023-01-06T01:45:32.601Z,1.95
2023-01-06T01:47:37.348Z,2.70
2023-01-06T01:49:39.911Z,1.20
2023-01-06T01:51:43.154Z,0.95
2023-01-06T01:53:47.380Z,1.60
2023-01-06T01:55:53.470Z,0.80
2023-01-06T01:58:03.954Z,0.57
2023-01-06T02:00:11.578Z,1.33
2023-01-06T02:02:19.474Z,0.32
2023-01-06T02:04:28.194Z,1.02
2023-01-06T02:06:32.829Z,1.00
2023-01-06T02:08:38.246Z,0.68
2023-01-06T02:10:45.675Z,0.32
2023-01-06T02:12:58.110Z,1.85
2023-01-06T02:14:59.681Z,0.63
2023-01-06T02:17:13.411Z,1.55
2023-01-06T02:19:18.442Z,0.45
2023-01-06T02:21:31.745Z,0.10
2023-01-06T02:23:39.420Z,0.20
2023-01-06T02:26:07.397Z,0.77
2023-01-06T02:28:33.794Z,0.17
2023-01-06T02:30:50.542Z,0.75
2023-01-06T02:33:06.166Z,0.43
2023-01-06T02:35:26.583Z,0.10
2023-01-06T02:37:50.129Z,0.15
2023-01-06T02:40:16.476Z,1.17
2023-01-06T02:42:22.579Z,0.00
2023-01-06T02:44:29.945Z,0.85
2023-01-06T02:46:56.181Z,0.00
2023-01-06T02:49:22.339Z,0.63
2023-01-06T02:51:44.152Z,0.10
2023-01-06T02:53:57.099Z,0.52
2023-01-06T02:56:04.971Z,0.20
2023-01-06T02:58:20.680Z,0.05
2023-01-06T03:00:28.076Z,0.08
2023-01-06T03:02:37.669Z,0.00
2023-01-06T03:04:41.336Z,0.00
2023-01-06T03:06:50.246Z,0.20
2023-01-06T03:08:59.133Z,0.00
2023-01-06T03:11:06.692Z,0.00
2023-01-06T03:13:14.926Z,0.10
2023-01-06T03:15:23.564Z,0.10
2023-01-06T03:17:31.235Z,0.00
2023-01-06T03:19:38.794Z,0.10
2023-01-06T03:21:42.608Z,0.00
2023-01-06T03:23:49.908Z,0.00
2023-01-06T03:25:51.538Z,0.00
2023-01-06T03:27:53.204Z,0.05
2023-01-06T03:30:01.259Z,0.00
2023-01-06T03:32:12.109Z,0.05
2023-01-06T03:34:43.533Z,1.45
2023-01-06T03:37:06.702Z,0.10
2023-01-06T03:39:12.113Z,0.00
2023-01-06T03:41:21.541Z,0.20
2023-01-06T03:43:28.655Z,0.00
2023-01-06T03:45:52.677Z,0.10
2023-01-06T03:48:22.331Z,0.00
2023-01-06T03:50:40.336Z,0.10
2023-01-06T03:52:46.825Z,0.10
2023-01-06T03:54:57.652Z,0.10
2023-01-06T03:57:16.160Z,0.47
2023-01-06T03:59:21.949Z,0.22
2023-01-06T04:01:27.682Z,0.10
2023-01-06T04:03:31.381Z,0.20
2023-01-06T04:05:35.171Z,0.10
2023-01-06T04:07:39.699Z,0.20
2023-01-06T04:09:49.074Z,0.10
2023-01-06T04:12:11.571Z,0.10
2023-01-06T04:14:21.028Z,0.08
2023-01-06T04:16:28.935Z,0.20
2023-01-06T04:18:30.551Z,0.30
2023-01-06T04:20:37.868Z,0.10
2023-01-06T04:22:42.689Z,0.00
2023-01-06T04:24:44.188Z,0.10
2023-01-06T04:26:51.407Z,0.00
2023-01-06T04:28:58.669Z,0.05
2023-01-06T04:31:10.126Z,0.20
2023-01-06T04:33:20.459Z,0.00
2023-01-06T04:35:27.924Z,1.05
2023-01-06T04:37:29.486Z,0.00
2023-01-06T04:39:31.006Z,0.20
2023-01-06T04:41:38.401Z,1.45
2023-01-06T04:43:45.848Z,0.00
2023-01-06T04:45:47.524Z,0.05
2023-01-06T04:47:54.962Z,0.00
2023-01-06T04:50:02.199Z,0.10
2023-01-06T04:52:04.329Z,0.20
2023-01-06T04:54:11.537Z,0.22
2023-01-06T04:56:13.788Z,0.08
2023-01-06T04:58:20.977Z,0.30
2023-01-06T05:00:28.224Z,0.03
2023-01-06T05:02:35.615Z,0.65
2023-01-06T05:04:47.730Z,0.13
2023-01-06T05:06:49.643Z,0.00
2023-01-06T05:08:51.250Z,0.08
2023-01-06T05:10:59.470Z,0.20
2023-01-06T05:13:06.991Z,0.60
2023-01-06T05:15:09.940Z,0.40
2023-01-06T05:17:11.534Z,0.10
2023-01-06T05:19:13.227Z,0.00
2023-01-06T05:21:20.894Z,0.00
2023-01-06T05:23:28.662Z,0.22
2023-01-06T05:25:30.125Z,0.00
2023-01-06T05:27:37.798Z,0.00
2023-01-06T05:29:45.272Z,0.20
2023-01-06T05:31:52.561Z,0.05
2023-01-06T05:33:59.899Z,0.00
2023-01-06T05:36:08.737Z,0.10
2023-01-06T05:38:10.418Z,0.00
2023-01-06T05:40:12.003Z,0.10
2023-01-06T05:42:15.521Z,0.00
2023-01-06T05:44:18.355Z,0.10
2023-01-06T05:46:23.803Z,0.10
2023-01-06T05:48:31.132Z,0.30
2023-01-06T05:50:32.658Z,0.20
2023-01-06T05:52:34.170Z,0.22
2023-01-06T05:56:40.497Z,0.00
2023-01-06T05:58:44.471Z,0.00
2023-01-06T06:00:45.960Z,0.13
2023-01-06T06:04:51.609Z,1.95
2023-01-06T06:06:53.065Z,0.00
2023-01-06T06:08:54.716Z,0.08
2023-01-06T06:11:03.034Z,0.10
2023-01-06T06:13:07.536Z,0.00
2023-01-06T06:15:18.558Z,0.10
2023-01-06T06:17:20.073Z,0.10
2023-01-06T06:19:27.757Z,0.52
2023-01-06T06:23:39.864Z,0.10
2023-01-06T06:25:44.088Z,0.10
2023-01-06T06:29:49.777Z,0.43
2023-01-06T06:31:51.295Z,0.93
2023-01-06T06:33:53.985Z,0.10
2023-01-06T06:36:03.539Z,0.00
2023-01-06T06:38:08.210Z,0.00
2023-01-06T06:40:15.833Z,0.00
2023-01-06T06:42:20.563Z,0.05
2023-01-06T06:44:25.280Z,0.10
2023-01-06T06:46:26.921Z,0.10
2023-01-06T06:48:34.314Z,0.10
2023-01-06T06:50:37.968Z,0.00
2023-01-06T06:52:43.622Z,0.10
2023-01-06T06:54:48.667Z,0.57
2023-01-06T06:56:57.106Z,0.00
2023-01-06T06:58:58.868Z,0.10
2023-01-06T07:01:06.215Z,0.00
2023-01-06T07:03:14.228Z,0.10
2023-01-06T07:05:26.557Z,0.30
2023-01-06T07:07:35.844Z,0.10
2023-01-06T07:09:45.559Z,0.10
2023-01-06T07:11:49.267Z,0.20
2023-01-06T07:13:58.546Z,0.35
2023-01-06T07:16:02.563Z,0.10
2023-01-06T07:18:05.052Z,0.10
2023-01-06T07:20:08.887Z,0.30
2023-01-06T07:22:12.782Z,0.75
2023-01-06T07:24:22.607Z,0.20
2023-01-06T07:26:27.400Z,0.10
2023-01-06T07:28:34.959Z,0.15
2023-01-06T07:30:37.049Z,0.08
2023-01-06T07:32:38.608Z,0.38
2023-01-06T07:34:40.270Z,0.10
2023-01-06T07:36:47.763Z,0.10
2023-01-06T07:38:49.326Z,0.10
2023-01-06T07:43:08.041Z,0.10
2023-01-06T07:45:15.317Z,0.10
2023-01-06T07:47:23.004Z,0.10
2023-01-06T07:49:24.470Z,0.10
2023-01-06T07:51:31.672Z,0.15
2023-01-06T07:53:33.263Z,0.15
2023-01-06T07:55:40.879Z,0.20
2023-01-06T07:57:42.684Z,0.10
2023-01-06T07:59:44.264Z,0.20
2023-01-06T08:01:51.975Z,0.20
2023-01-06T08:03:53.500Z,0.30
2023-01-06T08:06:05.548Z,0.20
2023-01-06T08:08:10.557Z,0.28
2023-01-06T08:10:12.684Z,0.20
2023-01-06T08:12:14.605Z,0.35
2023-01-06T08:14:21.951Z,0.30
2023-01-06T08:16:23.488Z,0.20
2023-01-06T08:18:30.707Z,0.20
2023-01-06T08:20:34.102Z,0.20
2023-01-06T08:22:41.678Z,0.20
2023-01-06T08:24:43.436Z,0.22
2023-01-06T08:26:51.010Z,0.20
2023-01-06T08:28:53.592Z,0.28
2023-01-06T08:31:01.102Z,0.28
2023-01-06T08:33:08.544Z,0.20
2023-01-06T08:35:10.163Z,0.20
2023-01-06T08:37:17.633Z,0.30
2023-01-06T08:39:25.055Z,0.20
2023-01-06T08:41:32.308Z,0.65
2023-01-06T08:43:33.937Z,0.43
2023-01-06T08:45:41.192Z,0.25
2023-01-06T08:47:42.708Z,0.55
2023-01-06T08:49:50.022Z,0.40
2023-01-06T08:51:51.704Z,0.10
2023-01-06T08:53:53.452Z,0.20
2023-01-06T08:56:00.926Z,0.98
2023-01-06T08:58:02.467Z,0.05
2023-01-06T09:00:10.812Z,0.20
2023-01-06T09:02:18.275Z,0.22
2023-01-06T09:04:19.903Z,0.10
2023-01-06T09:06:21.569Z,0.50
2023-01-06T09:08:23.805Z,0.10
2023-01-06T09:10:25.596Z,0.30
2023-01-06T09:12:33.268Z,0.20
2023-01-06T09:14:35.056Z,0.43
2023-01-06T09:16:36.843Z,0.32
2023-01-06T09:18:49.522Z,0.10
2023-01-06T09:20:51.149Z,0.40
2023-01-06T09:24:59.687Z,0.10
2023-01-06T09:27:01.173Z,0.20
2023-01-06T09:29:02.706Z,0.00
2023-01-06T09:31:07.777Z,0.08
2023-01-06T09:33:18.648Z,0.20
2023-01-06T09:35:20.304Z,0.10
2023-01-06T09:37:21.801Z,0.10
2023-01-06T09:39:23.361Z,0.20
2023-01-06T09:41:46.531Z,0.10
2023-01-06T09:43:52.257Z,0.20
2023-01-06T09:45:55.184Z,0.50
2023-01-06T09:48:02.093Z,0.20
2023-01-06T09:50:14.908Z,0.40
2023-01-06T09:52:35.075Z,0.40
2023-01-06T09:54:41.301Z,0.20
2023-01-06T09:56:49.372Z,0.22
2023-01-06T10:01:20.973Z,0.40
2023-01-06T10:03:38.082Z,0.98
2023-01-06T10:06:31.633Z,0.75
2023-01-06T10:08:55.055Z,1.05
2023-01-06T10:11:22.067Z,1.63
2023-01-06T10:13:36.956Z,2.15
2023-01-06T10:16:11.907Z,2.80
2023-01-06T10:18:40.326Z,4.07
2023-01-06T10:20:56.581Z,2.60
2023-01-06T10:23:18.313Z,1.38
2023-01-06T10:25:29.377Z,4.43
2023-01-06T10:28:06.624Z,4.30
2023-01-06T10:30:30.533Z,0.50
2023-01-06T10:32:34.239Z,6.20
2023-01-06T10:34:35.991Z,5.57
2023-01-06T10:36:40.445Z,4.80
2023-01-06T10:38:46.756Z,4.78
2023-01-06T10:40:51.891Z,4.68
2023-01-06T10:43:03.800Z,4.90
2023-01-06T10:45:12.077Z,1.88
2023-01-06T10:47:23.147Z,3.10
2023-01-06T10:49:24.673Z,3.80
2023-01-06T10:51:39.131Z,3.72
2023-01-06T10:53:43.876Z,4.22
2023-01-06T10:55:55.568Z,3.78
2023-01-06T10:58:03.802Z,3.90
2023-01-06T11:00:24.890Z,4.20
2023-01-06T11:02:26.482Z,5.53
2023-01-06T11:04:28.475Z,4.95
2023-01-06T11:06:32.970Z,3.92
2023-01-06T11:08:35.395Z,3.00
2023-01-06T11:10:53.455Z,5.82
2023-01-06T11:12:56.805Z,4.55
2023-01-06T11:15:06.149Z,3.20
2023-01-06T11:17:09.617Z,7.43
2023-01-06T11:19:24.895Z,4.93
2023-01-06T11:21:40.896Z,3.05
2023-01-06T11:23:48.750Z,2.88
2023-01-06T11:26:05.285Z,3.42
2023-01-06T11:28:09.699Z,3.08
2023-01-06T11:32:18.515Z,3.45
2023-01-06T11:34:27.388Z,2.67
2023-01-06T11:36:35.165Z,2.72
2023-01-06T11:38:43.763Z,4.13
2023-01-06T11:40:48.939Z,4.57
2023-01-06T11:42:54.990Z,2.72
2023-01-06T11:44:56.617Z,7.65
2023-01-06T11:47:03.565Z,5.53
2023-01-06T11:49:14.720Z,4.63
2023-01-06T11:51:31.035Z,3.22
2023-01-06T11:53:39.060Z,4.45
2023-01-06T11:55:55.044Z,2.40
2023-01-06T11:58:16.019Z,6.18
2023-01-06T12:00:20.534Z,2.42
2023-01-06T12:02:28.958Z,5.35
2023-01-06T12:04:41.936Z,6.22
2023-01-06T12:06:43.835Z,1.15
2023-01-06T12:08:50.057Z,3.42
2023-01-06T12:10:55.419Z,1.83
2023-01-06T12:12:56.965Z,1.65
2023-01-06T12:15:10.276Z,1.98
2023-01-06T12:17:18.028Z,1.25
2023-01-06T12:19:30.821Z,4.70
2023-01-06T12:21:34.770Z,4.63
2023-01-06T12:23:37.942Z,3.72
2023-01-06T12:25:47.532Z,5.32
2023-01-06T12:27:57.899Z,3.03
2023-01-06T12:30:08.792Z,3.45
2023-01-06T12:32:22.075Z,1.90
2023-01-06T12:34:33.428Z,4.63
2023-01-06T12:36:46.252Z,3.15
2023-01-06T12:38:58.565Z,4.40
2023-01-06T12:41:05.338Z,1.17
2023-01-06T12:43:15.702Z,2.90
2023-01-06T12:45:32.371Z,1.92
2023-01-06T12:47:36.140Z,3.35
2023-01-06T12:49:56.278Z,2.72
2023-01-06T12:52:06.717Z,4.22
2023-01-06T12:54:11.271Z,4.28
2023-01-06T12:56:31.485Z,2.38
2023-01-06T12:58:50.321Z,3.47
2023-01-06T13:01:01.488Z,2.15
2023-01-06T13:03:46.515Z,1.33
2023-01-06T13:05:54.608Z,3.58
2023-01-06T13:07:56.071Z,4.40
2023-01-06T13:10:04.299Z,1.35
2023-01-06T13:12:30.408Z,0.73
2023-01-06T13:14:37.986Z,1.33
2023-01-06T13:16:48.625Z,1.95
2023-01-06T13:19:08.583Z,1.58
2023-01-06T13:21:16.698Z,0.70
2023-01-06T13:23:37.246Z,2.28
2023-01-06T13:25:47.012Z,2.53
2023-01-06T13:27:59.331Z,0.77
2023-01-06T13:30:09.642Z,0.98
2023-01-06T13:32:16.763Z,0.43
2023-01-06T13:34:21.202Z,1.40
2023-01-06T13:36:34.611Z,0.20
2023-01-06T13:38:48.348Z,0.30
2023-01-06T13:40:58.073Z,0.17
2023-01-06T13:43:07.326Z,0.85
2023-01-06T13:45:13.087Z,0.47
2023-01-06T13:47:16.837Z,0.40
2023-01-06T13:49:24.634Z,0.17
2023-01-06T13:51:33.672Z,0.20
2023-01-06T13:53:39.366Z,0.13
2023-01-06T13:55:40.972Z,0.20
2023-01-06T13:57:42.692Z,0.38
2023-01-06T13:59:51.534Z,0.17
2023-01-06T14:01:53.805Z,0.28
2023-01-06T14:04:16.144Z,2.13
2023-01-06T14:08:23.319Z,0.40
2023-01-06T14:10:35.776Z,0.50
2023-01-06T14:12:48.043Z,1.95
2023-01-06T14:15:18.563Z,1.45
2023-01-06T14:17:34.542Z,0.38
2023-01-06T14:19:52.197Z,0.32
2023-01-06T14:21:55.284Z,2.05
2023-01-06T14:24:04.237Z,0.47
2023-01-06T14:26:09.029Z,0.77
2023-01-06T14:28:20.101Z,1.42
2023-01-06T14:30:21.680Z,0.60
2023-01-06T14:32:23.159Z,1.30
2023-01-06T14:34:27.511Z,1.55
2023-01-06T14:36:32.692Z,1.10
2023-01-06T14:38:42.444Z,1.48
2023-01-06T14:40:57.619Z,0.45
2023-01-06T14:43:00.348Z,0.57
2023-01-06T14:45:05.184Z,2.35
2023-01-06T14:47:11.778Z,1.70
2023-01-06T14:49:18.431Z,1.90
2023-01-06T14:51:24.218Z,0.20
2023-01-06T14:53:43.353Z,1.00
2023-01-06T14:55:49.572Z,0.73
2023-01-06T14:57:51.441Z,0.20
2023-01-06T15:00:11.772Z,0.50
2023-01-06T15:02:16.619Z,0.13
2023-01-06T15:04:23.231Z,1.98
2023-01-06T15:06:25.902Z,0.40
2023-01-06T15:08:30.895Z,2.10
2023-01-06T15:10:35.283Z,1.58
2023-01-06T15:12:38.738Z,0.60
2023-01-06T15:14:42.929Z,0.90
2023-01-06T15:18:48.700Z,0.65
2023-01-06T15:20:50.805Z,1.35
2023-01-06T15:24:59.156Z,2.07
2023-01-06T15:27:07.597Z,2.05
2023-01-06T15:29:16.230Z,2.75
2023-01-06T15:31:20.589Z,3.50
2023-01-06T15:33:23.900Z,1.10
2023-01-06T15:35:26.605Z,1.10
2023-01-06T15:37:31.164Z,5.50
2023-01-06T15:39:36.680Z,3.13
2023-01-06T15:41:41.858Z,1.63
2023-01-06T15:43:45.578Z,3.65
2023-01-06T15:46:01.684Z,4.00
2023-01-06T15:48:10.572Z,2.75
2023-01-06T15:50:19.711Z,3.35
2023-01-06T15:52:33.066Z,1.65
2023-01-06T15:54:36.727Z,0.63
2023-01-06T15:56:39.908Z,1.55
2023-01-06T15:58:48.849Z,0.77
2023-01-06T16:01:01.137Z,0.57
2023-01-06T16:03:17.229Z,1.13
2023-01-06T16:05:35.739Z,0.50
2023-01-06T16:07:41.837Z,0.38
2023-01-06T16:09:43.403Z,0.75
2023-01-06T16:12:05.541Z,0.88
2023-01-06T16:14:31.305Z,3.35
2023-01-06T16:16:45.860Z,1.48
2023-01-06T16:18:57.471Z,5.97
2023-01-06T16:21:24.139Z,3.90
2023-01-06T16:23:30.638Z,3.28
2023-01-06T16:25:46.750Z,6.45
2023-01-06T16:27:51.889Z,3.28
2023-01-06T16:30:09.645Z,6.53
2023-01-06T16:32:29.258Z,5.85
2023-01-06T16:34:33.262Z,4.40
2023-01-06T16:36:39.717Z,10.38
2023-01-06T16:38:49.414Z,11.55
2023-01-06T16:40:52.501Z,5.65
2023-01-06T16:43:00.604Z,4.90
2023-01-06T16:45:27.120Z,9.00
2023-01-06T16:47:28.714Z,3.97
2023-01-06T16:49:30.787Z,5.72
2023-01-06T16:51:33.528Z,6.15
2023-01-06T16:53:35.924Z,4.40
2023-01-06T16:55:43.644Z,5.78
2023-01-06T16:57:50.032Z,5.53
2023-01-06T16:59:51.642Z,5.07
2023-01-06T17:01:53.320Z,3.15
2023-01-06T17:04:00.994Z,4.75
2023-01-06T17:06:20.548Z,5.18
2023-01-06T17:08:29.967Z,6.32
2023-01-06T17:10:34.076Z,6.40
2023-01-06T17:12:54.164Z,6.53
2023-01-06T17:14:55.693Z,9.70
2023-01-06T17:16:57.384Z,8.43
2023-01-06T17:19:02.275Z,11.43
2023-01-06T17:21:15.012Z,11.68
2023-01-06T17:23:19.566Z,15.30
2023-01-06T17:25:28.449Z,18.20
2023-01-06T17:27:36.173Z,11.35
2023-01-06T17:29:38.042Z,12.85
2023-01-06T17:31:41.174Z,14.18
2023-01-06T17:33:44.365Z,15.70
2023-01-06T17:35:48.831Z,14.50
2023-01-06T17:37:53.871Z,14.07
2023-01-06T17:39:59.595Z,9.10
2023-01-06T17:42:01.863Z,11.95
2023-01-06T17:44:09.406Z,9.82
2023-01-06T17:46:16.658Z,11.07
2023-01-06T17:48:23.510Z,17.45
2023-01-06T17:52:35.896Z,14.68
2023-01-06T17:55:06.506Z,9.93
2023-01-06T17:57:15.560Z,14.82
2023-01-06T17:59:20.296Z,16.92
2023-01-06T18:01:30.097Z,14.57
2023-01-06T18:03:36.869Z,11.82
2023-01-06T18:05:47.180Z,9.10
2023-01-06T18:07:49.354Z,13.27
2023-01-06T18:09:56.867Z,9.23
2023-01-06T18:12:03.278Z,12.38
2023-01-06T18:14:23.783Z,6.32
2023-01-06T18:16:35.517Z,14.52
2023-01-06T18:18:43.629Z,10.98
2023-01-06T18:21:14.631Z,12.98
2023-01-06T18:23:25.748Z,10.63
2023-01-06T18:25:27.755Z,12.75
2023-01-06T18:27:35.091Z,11.38
2023-01-06T18:31:49.559Z,15.45
2023-01-06T18:33:56.721Z,21.63
2023-01-06T18:38:09.136Z,12.52
2023-01-06T18:40:16.709Z,14.95
2023-01-06T18:42:30.366Z,11.55
2023-01-06T18:44:32.299Z,9.15
2023-01-06T18:46:34.387Z,6.63
2023-01-06T18:48:41.985Z,8.30
2023-01-06T18:50:51.385Z,10.57
2023-01-06T18:53:17.624Z,12.70
2023-01-06T18:55:31.635Z,22.02
2023-01-06T18:57:35.575Z,16.02
2023-01-06T18:59:37.411Z,27.50
2023-01-06T19:01:47.312Z,14.85
2023-01-06T19:04:10.639Z,10.23
2023-01-06T19:06:15.752Z,9.40
2023-01-06T19:08:34.239Z,10.98
2023-01-06T19:10:44.053Z,12.70
2023-01-06T19:12:48.383Z,17.67
2023-01-06T19:14:53.625Z,11.88
2023-01-06T19:16:56.675Z,9.75
2023-01-06T19:19:06.866Z,13.02
2023-01-06T19:21:15.915Z,14.48
2023-01-06T19:23:26.133Z,17.33
2023-01-06T19:25:38.509Z,11.68
2023-01-06T19:27:52.158Z,13.38
2023-01-06T19:29:57.370Z,12.80
2023-01-06T19:32:06.149Z,6.03
2023-01-06T19:34:15.495Z,9.55
2023-01-06T19:36:31.340Z,16.95
2023-01-06T19:38:44.181Z,11.88
2023-01-06T19:40:47.257Z,12.18
2023-01-06T19:43:12.055Z,13.85
2023-01-06T19:45:34.966Z,13.88
2023-01-06T19:47:43.047Z,6.43
2023-01-06T19:49:54.944Z,11.15
2023-01-06T19:51:57.005Z,9.38
2023-01-06T19:54:30.999Z,15.20
2023-01-06T19:56:33.997Z,8.85
2023-01-06T19:58:38.710Z,11.25
2023-01-06T20:00:47.944Z,12.95
2023-01-06T20:02:49.785Z,11.75
2023-01-06T20:04:51.461Z,9.38
2023-01-06T20:06:55.711Z,12.95
2023-01-06T20:08:57.239Z,15.05
2023-01-06T20:10:58.988Z,14.77
2023-01-06T20:13:00.550Z,13.70
2023-01-06T20:15:06.722Z,15.65
2023-01-06T20:17:11.465Z,14.38
2023-01-06T20:19:21.449Z,14.27
2023-01-06T20:21:23.099Z,18.13
2023-01-06T20:23:27.569Z,16.70
2023-01-06T20:25:29.217Z,18.10
2023-01-06T20:27:33.943Z,15.75
2023-01-06T20:29:35.572Z,9.13
2023-01-06T20:31:39.885Z,13.00
2023-01-06T20:35:48.225Z,10.48
2023-01-06T20:37:49.664Z,9.43
2023-01-06T20:39:52.541Z,12.85
2023-01-06T20:42:00.385Z,15.93
2023-01-06T20:44:01.913Z,21.05
2023-01-06T20:46:03.542Z,12.65
2023-01-06T20:48:05.292Z,17.55
2023-01-06T20:50:13.857Z,18.80
2023-01-06T20:52:24.642Z,11.15
2023-01-06T20:54:31.776Z,18.85
2023-01-06T20:56:35.934Z,14.88
2023-01-06T20:58:37.458Z,11.85
2023-01-06T21:02:46.052Z,15.27
2023-01-06T21:04:47.690Z,10.55
2023-01-06T21:06:51.979Z,10.60
2023-01-06T21:08:53.482Z,15.73
2023-01-06T21:10:54.961Z,15.98
2023-01-06T21:13:02.217Z,11.43
2023-01-06T21:15:07.374Z,9.13
2023-01-06T21:17:08.864Z,15.57
2023-01-06T21:19:10.333Z,16.00
2023-01-06T21:21:11.806Z,8.70
2023-01-06T21:23:13.241Z,17.30
2023-01-06T21:25:16.588Z,9.75
2023-01-06T21:27:18.147Z,14.02
2023-01-06T21:29:19.775Z,16.98
2023-01-06T21:31:21.423Z,20.77
2023-01-06T21:33:25.998Z,8.38
2023-01-06T21:35:27.554Z,11.95
2023-01-06T21:37:31.814Z,13.27
2023-01-06T21:41:58.732Z,15.65
2023-01-06T21:44:03.099Z,13.57
2023-01-06T21:46:07.611Z,12.88
2023-01-06T21:48:09.714Z,13.82
2023-01-06T21:50:12.344Z,12.68
2023-01-06T21:52:16.659Z,14.10
2023-01-06T21:54:18.231Z,13.35
2023-01-06T21:56:20.888Z,14.80
2023-01-06T21:58:25.443Z,9.15
2023-01-06T22:00:29.534Z,13.38
2023-01-06T22:02:37.379Z,13.25
2023-01-06T22:04:41.886Z,12.68
2023-01-06T22:08:54.641Z,12.50
2023-01-06T22:10:56.161Z,12.77
2023-01-06T22:12:59.295Z,15.75
2023-01-06T22:15:04.555Z,11.68
2023-01-06T22:17:07.060Z,16.55
2023-01-06T22:19:10.652Z,17.08
2023-01-06T22:21:12.545Z,18.38
2023-01-06T22:23:19.024Z,15.07
2023-01-06T22:25:24.959Z,16.35
2023-01-06T22:27:30.911Z,12.80
2023-01-06T22:29:37.962Z,16.38
2023-01-06T22:31:41.914Z,13.18
2023-01-06T22:35:49.028Z,13.57
2023-01-06T22:39:55.860Z,13.10
2023-01-06T22:42:02.461Z,14.80
2023-01-06T22:44:09.108Z,14.18
2023-01-06T22:46:12.139Z,20.35
2023-01-06T22:48:18.254Z,14.82
2023-01-06T22:50:24.222Z,11.63
2023-01-06T22:52:26.215Z,13.98
2023-01-06T22:54:27.835Z,19.63
2023-01-06T22:56:32.376Z,14.23
2023-01-06T22:58:38.056Z,9.30
2023-01-06T23:00:39.615Z,15.60
2023-01-06T23:02:47.124Z,11.13
2023-01-06T23:04:48.730Z,13.38
2023-01-06T23:06:53.115Z,20.85
2023-01-06T23:09:00.739Z,18.23
2023-01-06T23:11:07.629Z,17.33
2023-01-06T23:13:09.421Z,11.70
2023-01-06T23:15:17.179Z,14.65
2023-01-06T23:17:24.882Z,15.00
2023-01-06T23:19:26.518Z,13.27
2023-01-06T23:21:29.803Z,15.95
2023-01-06T23:23:32.103Z,12.73
2023-01-06T23:25:39.503Z,14.82
2023-01-06T23:29:48.136Z,15.02
2023-01-06T23:31:49.644Z,15.55
2023-01-06T23:34:00.264Z,9.93
2023-01-06T23:36:02.867Z,10.77
2023-01-06T23:38:07.095Z,18.83
2023-01-06T23:40:08.917Z,14.02
2023-01-06T23:42:10.429Z,16.30
2023-01-06T23:44:16.313Z,14.93
2023-01-06T23:46:19.172Z,9.82
2023-01-06T23:48:23.483Z,23.85
2023-01-06T23:50:27.671Z,18.15
2023-01-06T23:52:29.291Z,13.45
2023-01-06T23:54:33.811Z,17.52
2023-01-06T23:56:41.244Z,17.27
